sensor_id;sensor_type;location;lat;lon;timestamp;P1;durP1;ratioP1;P2;durP2;ratioP2
39140;SDS011;24875;48.436;10.298;2022-08-06T00:02:16;16.50;;;8.07;;
39140;SDS011;24875;48.436;10.298;2022-08-06T00:04:43;18.40;;;8.55;;
39140;SDS011;24875;48.436;10.298;2022-08-06T00:07:10;15.73;;;7.78;;
39140;SDS011;24875;48.436;10.298;2022-08-06T00:09:36;18.45;;;7.85;;
39140;SDS011;24875;48.436;10.298;2022-08-06T00:12:05;18.35;;;8.23;;
39140;SDS011;24875;48.436;10.298;2022-08-06T00:14:32;18.10;;;8.25;;
39140;SDS011;24875;48.436;10.298;2022-08-06T00:16:58;14.68;;;7.97;;
39140;SDS011;24875;48.436;10.298;2022-08-06T00:19:25;15.13;;;7.50;;
39140;SDS011;24875;48.436;10.298;2022-08-06T00:21:52;6.22;;;3.80;;
39140;SDS011;24875;48.436;10.298;2022-08-06T00:24:19;4.75;;;2.75;;
39140;SDS011;24875;48.436;10.298;2022-08-06T00:26:46;5.50;;;2.80;;
39140;SDS011;24875;48.436;10.298;2022-08-06T00:29:14;5.68;;;2.75;;
39140;SDS011;24875;48.436;10.298;2022-08-06T00:31:41;6.40;;;2.63;;
39140;SDS011;24875;48.436;10.298;2022-08-06T00:34:07;4.00;;;2.33;;
39140;SDS011;24875;48.436;10.298;2022-08-06T00:36:34;5.43;;;2.42;;
39140;SDS011;24875;48.436;10.298;2022-08-06T00:39:02;5.93;;;2.78;;
39140;SDS011;24875;48.436;10.298;2022-08-06T00:41:30;8.43;;;2.88;;
39140;SDS011;24875;48.436;10.298;2022-08-06T00:43:57;6.50;;;3.20;;
39140;SDS011;24875;48.436;10.298;2022-08-06T00:46:26;4.97;;;3.13;;
39140;SDS011;24875;48.436;10.298;2022-08-06T00:48:52;7.20;;;3.58;;
39140;SDS011;24875;48.436;10.298;2022-08-06T00:51:19;8.82;;;4.22;;
39140;SDS011;24875;48.436;10.298;2022-08-06T00:53:46;10.35;;;3.53;;
39140;SDS011;24875;48.436;10.298;2022-08-06T00:56:12;6.70;;;3.65;;
39140;SDS011;24875;48.436;10.298;2022-08-06T00:58:39;6.18;;;3.78;;
39140;SDS011;24875;48.436;10.298;2022-08-06T01:01:05;7.80;;;3.70;;
39140;SDS011;24875;48.436;10.298;2022-08-06T01:03:34;7.10;;;3.72;;
39140;SDS011;24875;48.436;10.298;2022-08-06T01:06:00;9.07;;;4.13;;
39140;SDS011;24875;48.436;10.298;2022-08-06T01:08:27;8.45;;;4.35;;
39140;SDS011;24875;48.436;10.298;2022-08-06T01:10:53;10.02;;;4.40;;
39140;SDS011;24875;48.436;10.298;2022-08-06T01:13:20;9.25;;;4.25;;
39140;SDS011;24875;48.436;10.298;2022-08-06T01:15:48;9.20;;;4.70;;
39140;SDS011;24875;48.436;10.298;2022-08-06T01:18:19;10.25;;;4.85;;
39140;SDS011;24875;48.436;10.298;2022-08-06T01:20:55;8.82;;;4.60;;
39140;SDS011;24875;48.436;10.298;2022-08-06T01:23:35;8.10;;;4.75;;
39140;SDS011;24875;48.436;10.298;2022-08-06T01:26:19;9.05;;;4.97;;
39140;SDS011;24875;48.436;10.298;2022-08-06T01:28:54;10.65;;;5.10;;
39140;SDS011;24875;48.436;10.298;2022-08-06T01:31:26;8.25;;;4.85;;
39140;SDS011;24875;48.436;10.298;2022-08-06T01:33:59;7.07;;;4.00;;
39140;SDS011;24875;48.436;10.298;2022-08-06T01:36:30;6.57;;;3.58;;
39140;SDS011;24875;48.436;10.298;2022-08-06T01:39:02;8.20;;;3.88;;
39140;SDS011;24875;48.436;10.298;2022-08-06T01:41:30;5.32;;;3.03;;
39140;SDS011;24875;48.436;10.298;2022-08-06T01:44:07;5.28;;;2.83;;
39140;SDS011;24875;48.436;10.298;2022-08-06T01:46:35;6.90;;;3.50;;
39140;SDS011;24875;48.436;10.298;2022-08-06T01:49:03;5.78;;;2.75;;
39140;SDS011;24875;48.436;10.298;2022-08-06T01:51:32;9.13;;;3.50;;
39140;SDS011;24875;48.436;10.298;2022-08-06T01:53:59;6.18;;;3.25;;
39140;SDS011;24875;48.436;10.298;2022-08-06T01:56:29;9.68;;;3.35;;
39140;SDS011;24875;48.436;10.298;2022-08-06T01:59:00;3.80;;;2.58;;
39140;SDS011;24875;48.436;10.298;2022-08-06T02:01:32;3.65;;;2.72;;
39140;SDS011;24875;48.436;10.298;2022-08-06T02:04:00;2.53;;;2.15;;
39140;SDS011;24875;48.436;10.298;2022-08-06T02:06:28;4.18;;;2.85;;
39140;SDS011;24875;48.436;10.298;2022-08-06T02:08:58;4.70;;;2.65;;
39140;SDS011;24875;48.436;10.298;2022-08-06T02:11:27;4.43;;;2.50;;
39140;SDS011;24875;48.436;10.298;2022-08-06T02:13:54;4.35;;;2.53;;
39140;SDS011;24875;48.436;10.298;2022-08-06T02:16:23;4.13;;;2.55;;
39140;SDS011;24875;48.436;10.298;2022-08-06T02:18:54;6.25;;;2.80;;
39140;SDS011;24875;48.436;10.298;2022-08-06T02:21:24;3.53;;;2.30;;
39140;SDS011;24875;48.436;10.298;2022-08-06T02:23:52;5.85;;;2.85;;
39140;SDS011;24875;48.436;10.298;2022-08-06T02:26:20;3.20;;;2.50;;
39140;SDS011;24875;48.436;10.298;2022-08-06T02:28:50;4.15;;;2.25;;
39140;SDS011;24875;48.436;10.298;2022-08-06T02:31:19;5.35;;;2.40;;
39140;SDS011;24875;48.436;10.298;2022-08-06T02:33:45;3.70;;;2.05;;
39140;SDS011;24875;48.436;10.298;2022-08-06T02:36:14;4.10;;;2.47;;
39140;SDS011;24875;48.436;10.298;2022-08-06T02:38:45;3.30;;;2.50;;
39140;SDS011;24875;48.436;10.298;2022-08-06T02:41:15;3.53;;;2.17;;
39140;SDS011;24875;48.436;10.298;2022-08-06T02:43:46;5.63;;;2.47;;
39140;SDS011;24875;48.436;10.298;2022-08-06T02:46:19;3.22;;;2.20;;
39140;SDS011;24875;48.436;10.298;2022-08-06T02:48:52;5.20;;;2.35;;
39140;SDS011;24875;48.436;10.298;2022-08-06T02:51:25;3.80;;;2.35;;
39140;SDS011;24875;48.436;10.298;2022-08-06T02:53:59;3.83;;;2.38;;
39140;SDS011;24875;48.436;10.298;2022-08-06T02:56:30;3.53;;;2.40;;
39140;SDS011;24875;48.436;10.298;2022-08-06T02:58:59;5.35;;;2.40;;
39140;SDS011;24875;48.436;10.298;2022-08-06T03:01:28;5.22;;;2.72;;
39140;SDS011;24875;48.436;10.298;2022-08-06T03:03:58;5.65;;;2.70;;
39140;SDS011;24875;48.436;10.298;2022-08-06T03:06:28;4.40;;;2.40;;
39140;SDS011;24875;48.436;10.298;2022-08-06T03:08:58;5.90;;;2.72;;
39140;SDS011;24875;48.436;10.298;2022-08-06T03:11:29;2.80;;;2.20;;
39140;SDS011;24875;48.436;10.298;2022-08-06T03:13:58;5.68;;;2.42;;
39140;SDS011;24875;48.436;10.298;2022-08-06T03:16:27;4.68;;;2.67;;
39140;SDS011;24875;48.436;10.298;2022-08-06T03:18:57;7.38;;;2.75;;
39140;SDS011;24875;48.436;10.298;2022-08-06T03:21:24;6.53;;;2.53;;
39140;SDS011;24875;48.436;10.298;2022-08-06T03:23:53;6.15;;;2.67;;
39140;SDS011;24875;48.436;10.298;2022-08-06T03:26:20;7.93;;;2.80;;
39140;SDS011;24875;48.436;10.298;2022-08-06T03:28:47;4.00;;;2.35;;
39140;SDS011;24875;48.436;10.298;2022-08-06T03:31:15;3.20;;;2.33;;
39140;SDS011;24875;48.436;10.298;2022-08-06T03:33:43;4.32;;;2.78;;
39140;SDS011;24875;48.436;10.298;2022-08-06T03:36:09;3.65;;;2.47;;
39140;SDS011;24875;48.436;10.298;2022-08-06T03:38:37;4.55;;;2.55;;
39140;SDS011;24875;48.436;10.298;2022-08-06T03:41:07;3.00;;;2.22;;
39140;SDS011;24875;48.436;10.298;2022-08-06T03:43:34;5.80;;;2.50;;
39140;SDS011;24875;48.436;10.298;2022-08-06T03:46:02;3.63;;;2.20;;
39140;SDS011;24875;48.436;10.298;2022-08-06T03:48:32;4.57;;;2.70;;
39140;SDS011;24875;48.436;10.298;2022-08-06T03:51:01;3.38;;;2.22;;
39140;SDS011;24875;48.436;10.298;2022-08-06T03:53:29;4.85;;;2.78;;
39140;SDS011;24875;48.436;10.298;2022-08-06T03:55:59;3.55;;;2.50;;
39140;SDS011;24875;48.436;10.298;2022-08-06T03:58:29;3.53;;;2.30;;
39140;SDS011;24875;48.436;10.298;2022-08-06T04:00:58;5.20;;;2.60;;
39140;SDS011;24875;48.436;10.298;2022-08-06T04:03:28;6.10;;;2.65;;
39140;SDS011;24875;48.436;10.298;2022-08-06T04:05:55;6.22;;;2.70;;
39140;SDS011;24875;48.436;10.298;2022-08-06T04:08:23;4.00;;;2.42;;
39140;SDS011;24875;48.436;10.298;2022-08-06T04:10:51;4.35;;;2.55;;
39140;SDS011;24875;48.436;10.298;2022-08-06T04:13:19;4.60;;;2.40;;
39140;SDS011;24875;48.436;10.298;2022-08-06T04:15:50;3.63;;;2.35;;
39140;SDS011;24875;48.436;10.298;2022-08-06T04:18:20;7.43;;;2.92;;
39140;SDS011;24875;48.436;10.298;2022-08-06T04:20:50;5.72;;;2.58;;
39140;SDS011;24875;48.436;10.298;2022-08-06T04:23:18;4.28;;;2.70;;
39140;SDS011;24875;48.436;10.298;2022-08-06T04:25:47;4.72;;;2.78;;
39140;SDS011;24875;48.436;10.298;2022-08-06T04:28:17;4.07;;;2.70;;
39140;SDS011;24875;48.436;10.298;2022-08-06T04:30:45;4.93;;;2.50;;
39140;SDS011;24875;48.436;10.298;2022-08-06T04:33:15;3.20;;;2.15;;
39140;SDS011;24875;48.436;10.298;2022-08-06T04:35:44;3.60;;;2.13;;
39140;SDS011;24875;48.436;10.298;2022-08-06T04:38:11;3.60;;;2.33;;
39140;SDS011;24875;48.436;10.298;2022-08-06T04:40:40;2.92;;;2.10;;
39140;SDS011;24875;48.436;10.298;2022-08-06T04:43:08;3.40;;;2.42;;
39140;SDS011;24875;48.436;10.298;2022-08-06T04:45:36;3.75;;;2.60;;
39140;SDS011;24875;48.436;10.298;2022-08-06T04:48:05;3.42;;;2.17;;
39140;SDS011;24875;48.436;10.298;2022-08-06T04:50:35;4.55;;;2.15;;
39140;SDS011;24875;48.436;10.298;2022-08-06T04:53:05;3.67;;;2.40;;
39140;SDS011;24875;48.436;10.298;2022-08-06T04:55:34;4.90;;;2.10;;
39140;SDS011;24875;48.436;10.298;2022-08-06T04:58:01;3.97;;;2.42;;
39140;SDS011;24875;48.436;10.298;2022-08-06T05:00:29;3.40;;;2.55;;
39140;SDS011;24875;48.436;10.298;2022-08-06T05:02:56;4.95;;;2.28;;
39140;SDS011;24875;48.436;10.298;2022-08-06T05:05:22;4.72;;;2.10;;
39140;SDS011;24875;48.436;10.298;2022-08-06T05:07:51;3.83;;;2.60;;
39140;SDS011;24875;48.436;10.298;2022-08-06T05:10:20;4.68;;;2.08;;
39140;SDS011;24875;48.436;10.298;2022-08-06T05:12:49;6.40;;;2.60;;
39140;SDS011;24875;48.436;10.298;2022-08-06T05:15:22;3.83;;;2.13;;
39140;SDS011;24875;48.436;10.298;2022-08-06T05:17:55;3.53;;;2.20;;
39140;SDS011;24875;48.436;10.298;2022-08-06T05:20:24;3.97;;;2.50;;
39140;SDS011;24875;48.436;10.298;2022-08-06T05:22:57;6.65;;;2.50;;
39140;SDS011;24875;48.436;10.298;2022-08-06T05:25:26;3.67;;;2.42;;
39140;SDS011;24875;48.436;10.298;2022-08-06T05:27:53;4.78;;;2.38;;
39140;SDS011;24875;48.436;10.298;2022-08-06T05:30:20;3.00;;;2.33;;
39140;SDS011;24875;48.436;10.298;2022-08-06T05:32:48;3.67;;;2.63;;
39140;SDS011;24875;48.436;10.298;2022-08-06T05:35:15;4.88;;;2.53;;
39140;SDS011;24875;48.436;10.298;2022-08-06T05:37:41;4.05;;;2.83;;
39140;SDS011;24875;48.436;10.298;2022-08-06T05:40:09;7.05;;;2.50;;
39140;SDS011;24875;48.436;10.298;2022-08-06T05:42:36;4.22;;;2.33;;
39140;SDS011;24875;48.436;10.298;2022-08-06T05:45:03;6.60;;;2.50;;
39140;SDS011;24875;48.436;10.298;2022-08-06T05:47:32;4.78;;;2.17;;
39140;SDS011;24875;48.436;10.298;2022-08-06T05:50:04;8.27;;;2.40;;
39140;SDS011;24875;48.436;10.298;2022-08-06T05:52:34;9.07;;;2.40;;
39140;SDS011;24875;48.436;10.298;2022-08-06T05:55:08;4.97;;;2.63;;
39140;SDS011;24875;48.436;10.298;2022-08-06T05:57:42;7.53;;;2.78;;
39140;SDS011;24875;48.436;10.298;2022-08-06T06:00:12;7.35;;;2.90;;
39140;SDS011;24875;48.436;10.298;2022-08-06T06:02:42;5.63;;;2.08;;
39140;SDS011;24875;48.436;10.298;2022-08-06T06:05:10;5.65;;;2.97;;
39140;SDS011;24875;48.436;10.298;2022-08-06T06:07:38;5.35;;;2.50;;
39140;SDS011;24875;48.436;10.298;2022-08-06T06:10:06;4.03;;;3.05;;
39140;SDS011;24875;48.436;10.298;2022-08-06T06:12:35;5.28;;;2.58;;
39140;SDS011;24875;48.436;10.298;2022-08-06T06:15:03;6.15;;;2.17;;
39140;SDS011;24875;48.436;10.298;2022-08-06T06:17:41;3.97;;;2.63;;
39140;SDS011;24875;48.436;10.298;2022-08-06T06:20:23;4.55;;;2.72;;
39140;SDS011;24875;48.436;10.298;2022-08-06T06:23:00;4.43;;;2.30;;
39140;SDS011;24875;48.436;10.298;2022-08-06T06:25:32;4.07;;;2.53;;
39140;SDS011;24875;48.436;10.298;2022-08-06T06:28:05;5.00;;;2.50;;
39140;SDS011;24875;48.436;10.298;2022-08-06T06:30:42;2.92;;;2.15;;
39140;SDS011;24875;48.436;10.298;2022-08-06T06:33:18;7.50;;;2.30;;
39140;SDS011;24875;48.436;10.298;2022-08-06T06:35:48;3.72;;;2.70;;
39140;SDS011;24875;48.436;10.298;2022-08-06T06:38:21;3.28;;;2.60;;
39140;SDS011;24875;48.436;10.298;2022-08-06T06:40:56;5.28;;;3.05;;
39140;SDS011;24875;48.436;10.298;2022-08-06T06:43:29;4.93;;;3.00;;
39140;SDS011;24875;48.436;10.298;2022-08-06T06:46:04;5.32;;;2.83;;
39140;SDS011;24875;48.436;10.298;2022-08-06T06:48:37;5.68;;;3.30;;
39140;SDS011;24875;48.436;10.298;2022-08-06T06:51:11;7.90;;;3.33;;
39140;SDS011;24875;48.436;10.298;2022-08-06T06:53:41;4.63;;;2.80;;
39140;SDS011;24875;48.436;10.298;2022-08-06T06:56:12;4.18;;;2.92;;
39140;SDS011;24875;48.436;10.298;2022-08-06T06:58:45;6.65;;;3.40;;
39140;SDS011;24875;48.436;10.298;2022-08-06T07:01:15;5.38;;;2.72;;
39140;SDS011;24875;48.436;10.298;2022-08-06T07:03:44;4.85;;;3.20;;
39140;SDS011;24875;48.436;10.298;2022-08-06T07:06:13;5.03;;;3.20;;
39140;SDS011;24875;48.436;10.298;2022-08-06T07:08:43;4.30;;;3.05;;
39140;SDS011;24875;48.436;10.298;2022-08-06T07:11:13;4.65;;;3.03;;
39140;SDS011;24875;48.436;10.298;2022-08-06T07:13:48;5.15;;;2.50;;
39140;SDS011;24875;48.436;10.298;2022-08-06T07:16:16;4.75;;;2.95;;
39140;SDS011;24875;48.436;10.298;2022-08-06T07:18:44;5.03;;;3.10;;
39140;SDS011;24875;48.436;10.298;2022-08-06T07:21:13;8.02;;;3.00;;
39140;SDS011;24875;48.436;10.298;2022-08-06T07:23:40;3.55;;;2.65;;
39140;SDS011;24875;48.436;10.298;2022-08-06T07:26:08;5.18;;;3.45;;
39140;SDS011;24875;48.436;10.298;2022-08-06T07:28:38;3.83;;;2.70;;
39140;SDS011;24875;48.436;10.298;2022-08-06T07:31:06;6.55;;;2.97;;
39140;SDS011;24875;48.436;10.298;2022-08-06T07:33:34;5.15;;;3.13;;
39140;SDS011;24875;48.436;10.298;2022-08-06T07:36:03;5.40;;;3.22;;
39140;SDS011;24875;48.436;10.298;2022-08-06T07:38:31;5.93;;;3.03;;
39140;SDS011;24875;48.436;10.298;2022-08-06T07:41:01;5.32;;;2.97;;
39140;SDS011;24875;48.436;10.298;2022-08-06T07:43:30;6.20;;;3.05;;
39140;SDS011;24875;48.436;10.298;2022-08-06T07:46:00;4.13;;;2.78;;
39140;SDS011;24875;48.436;10.298;2022-08-06T07:48:32;7.82;;;3.22;;
39140;SDS011;24875;48.436;10.298;2022-08-06T07:51:03;6.70;;;3.70;;
39140;SDS011;24875;48.436;10.298;2022-08-06T07:53:31;5.07;;;3.20;;
39140;SDS011;24875;48.436;10.298;2022-08-06T07:55:59;7.43;;;3.53;;
39140;SDS011;24875;48.436;10.298;2022-08-06T07:58:27;5.57;;;3.50;;
39140;SDS011;24875;48.436;10.298;2022-08-06T08:00:54;5.25;;;3.17;;
39140;SDS011;24875;48.436;10.298;2022-08-06T08:03:21;7.40;;;3.53;;
39140;SDS011;24875;48.436;10.298;2022-08-06T08:06:07;7.80;;;3.90;;
39140;SDS011;24875;48.436;10.298;2022-08-06T08:08:45;7.15;;;3.85;;
39140;SDS011;24875;48.436;10.298;2022-08-06T08:11:13;7.22;;;3.60;;
39140;SDS011;24875;48.436;10.298;2022-08-06T08:13:41;4.35;;;3.15;;
39140;SDS011;24875;48.436;10.298;2022-08-06T08:16:09;5.20;;;3.47;;
39140;SDS011;24875;48.436;10.298;2022-08-06T08:18:39;6.78;;;3.92;;
39140;SDS011;24875;48.436;10.298;2022-08-06T08:21:07;7.15;;;4.18;;
39140;SDS011;24875;48.436;10.298;2022-08-06T08:23:35;8.27;;;3.90;;
39140;SDS011;24875;48.436;10.298;2022-08-06T08:26:04;5.93;;;3.00;;
39140;SDS011;24875;48.436;10.298;2022-08-06T08:28:31;6.75;;;4.40;;
39140;SDS011;24875;48.436;10.298;2022-08-06T08:30:57;7.18;;;4.38;;
39140;SDS011;24875;48.436;10.298;2022-08-06T08:33:26;6.82;;;4.18;;
39140;SDS011;24875;48.436;10.298;2022-08-06T08:35:54;8.43;;;4.75;;
39140;SDS011;24875;48.436;10.298;2022-08-06T08:38:22;7.32;;;4.03;;
39140;SDS011;24875;48.436;10.298;2022-08-06T08:40:49;8.57;;;4.63;;
39140;SDS011;24875;48.436;10.298;2022-08-06T08:43:18;8.45;;;4.55;;
39140;SDS011;24875;48.436;10.298;2022-08-06T08:45:49;6.40;;;4.20;;
39140;SDS011;24875;48.436;10.298;2022-08-06T08:48:18;6.63;;;3.97;;
39140;SDS011;24875;48.436;10.298;2022-08-06T08:50:49;8.23;;;4.93;;
39140;SDS011;24875;48.436;10.298;2022-08-06T08:53:20;10.50;;;4.50;;
39140;SDS011;24875;48.436;10.298;2022-08-06T08:55:53;9.20;;;5.00;;
39140;SDS011;24875;48.436;10.298;2022-08-06T08:58:20;8.00;;;4.72;;
39140;SDS011;24875;48.436;10.298;2022-08-06T09:00:48;8.32;;;4.40;;
39140;SDS011;24875;48.436;10.298;2022-08-06T09:03:14;9.93;;;4.90;;
39140;SDS011;24875;48.436;10.298;2022-08-06T09:05:41;5.43;;;3.80;;
39140;SDS011;24875;48.436;10.298;2022-08-06T09:08:09;11.73;;;4.40;;
39140;SDS011;24875;48.436;10.298;2022-08-06T09:10:37;8.38;;;4.35;;
39140;SDS011;24875;48.436;10.298;2022-08-06T09:13:04;8.25;;;4.28;;
39140;SDS011;24875;48.436;10.298;2022-08-06T09:15:30;5.70;;;3.78;;
39140;SDS011;24875;48.436;10.298;2022-08-06T09:17:57;7.50;;;4.30;;
39140;SDS011;24875;48.436;10.298;2022-08-06T09:20:23;8.65;;;4.50;;
39140;SDS011;24875;48.436;10.298;2022-08-06T09:22:50;6.50;;;4.63;;
39140;SDS011;24875;48.436;10.298;2022-08-06T09:28:11;11.35;;;5.10;;
39140;SDS011;24875;48.436;10.298;2022-08-06T09:30:56;8.02;;;5.32;;
39140;SDS011;24875;48.436;10.298;2022-08-06T09:33:24;10.68;;;5.03;;
39140;SDS011;24875;48.436;10.298;2022-08-06T09:35:56;10.23;;;4.78;;
39140;SDS011;24875;48.436;10.298;2022-08-06T09:38:23;8.30;;;4.82;;
39140;SDS011;24875;48.436;10.298;2022-08-06T09:41:04;9.20;;;5.05;;
39140;SDS011;24875;48.436;10.298;2022-08-06T09:43:33;9.45;;;4.85;;
39140;SDS011;24875;48.436;10.298;2022-08-06T09:46:00;7.50;;;4.45;;
39140;SDS011;24875;48.436;10.298;2022-08-06T09:48:26;11.90;;;5.78;;
39140;SDS011;24875;48.436;10.298;2022-08-06T09:50:52;7.72;;;5.10;;
39140;SDS011;24875;48.436;10.298;2022-08-06T09:53:19;12.05;;;5.60;;
39140;SDS011;24875;48.436;10.298;2022-08-06T09:55:46;12.75;;;4.90;;
39140;SDS011;24875;48.436;10.298;2022-08-06T09:58:15;8.48;;;5.43;;
39140;SDS011;24875;48.436;10.298;2022-08-06T10:00:54;8.68;;;5.32;;
39140;SDS011;24875;48.436;10.298;2022-08-06T10:03:20;14.27;;;5.18;;
39140;SDS011;24875;48.436;10.298;2022-08-06T10:05:47;11.07;;;5.35;;
39140;SDS011;24875;48.436;10.298;2022-08-06T10:08:28;8.60;;;5.60;;
39140;SDS011;24875;48.436;10.298;2022-08-06T10:10:54;9.48;;;5.43;;
39140;SDS011;24875;48.436;10.298;2022-08-06T10:13:27;10.02;;;5.55;;
39140;SDS011;24875;48.436;10.298;2022-08-06T10:15:54;10.30;;;5.75;;
39140;SDS011;24875;48.436;10.298;2022-08-06T10:18:32;11.93;;;5.93;;
39140;SDS011;24875;48.436;10.298;2022-08-06T10:21:01;8.77;;;5.38;;
39140;SDS011;24875;48.436;10.298;2022-08-06T10:23:30;9.00;;;5.22;;
39140;SDS011;24875;48.436;10.298;2022-08-06T10:25:58;8.60;;;4.57;;
39140;SDS011;24875;48.436;10.298;2022-08-06T10:28:25;8.73;;;4.93;;
39140;SDS011;24875;48.436;10.298;2022-08-06T10:30:54;9.57;;;4.47;;
39140;SDS011;24875;48.436;10.298;2022-08-06T10:33:22;10.65;;;5.28;;
39140;SDS011;24875;48.436;10.298;2022-08-06T10:35:50;10.98;;;5.20;;
39140;SDS011;24875;48.436;10.298;2022-08-06T10:38:21;10.25;;;4.97;;
39140;SDS011;24875;48.436;10.298;2022-08-06T10:40:51;7.70;;;5.32;;
39140;SDS011;24875;48.436;10.298;2022-08-06T10:43:19;8.50;;;5.35;;
39140;SDS011;24875;48.436;10.298;2022-08-06T10:45:47;7.60;;;5.18;;
39140;SDS011;24875;48.436;10.298;2022-08-06T10:48:15;8.00;;;4.97;;
39140;SDS011;24875;48.436;10.298;2022-08-06T10:50:42;7.28;;;4.65;;
39140;SDS011;24875;48.436;10.298;2022-08-06T10:53:09;8.00;;;5.20;;
39140;SDS011;24875;48.436;10.298;2022-08-06T10:55:37;6.75;;;4.43;;
39140;SDS011;24875;48.436;10.298;2022-08-06T10:58:04;5.93;;;4.15;;
39140;SDS011;24875;48.436;10.298;2022-08-06T11:00:31;8.82;;;4.30;;
39140;SDS011;24875;48.436;10.298;2022-08-06T11:03:12;7.22;;;4.40;;
39140;SDS011;24875;48.436;10.298;2022-08-06T11:05:43;6.53;;;3.90;;
39140;SDS011;24875;48.436;10.298;2022-08-06T11:08:26;9.45;;;4.75;;
39140;SDS011;24875;48.436;10.298;2022-08-06T11:11:06;8.45;;;4.45;;
39140;SDS011;24875;48.436;10.298;2022-08-06T11:13:47;6.78;;;4.43;;
39140;SDS011;24875;48.436;10.298;2022-08-06T11:16:22;9.88;;;4.63;;
39140;SDS011;24875;48.436;10.298;2022-08-06T11:19:01;5.53;;;4.20;;
39140;SDS011;24875;48.436;10.298;2022-08-06T11:21:36;7.93;;;4.78;;
39140;SDS011;24875;48.436;10.298;2022-08-06T11:24:04;6.22;;;4.32;;
39140;SDS011;24875;48.436;10.298;2022-08-06T11:26:32;7.20;;;3.85;;
39140;SDS011;24875;48.436;10.298;2022-08-06T11:29:00;6.05;;;4.10;;
39140;SDS011;24875;48.436;10.298;2022-08-06T11:34:15;7.22;;;4.43;;
39140;SDS011;24875;48.436;10.298;2022-08-06T11:36:51;6.15;;;4.13;;
39140;SDS011;24875;48.436;10.298;2022-08-06T11:39:20;9.25;;;3.90;;
39140;SDS011;24875;48.436;10.298;2022-08-06T11:41:49;5.95;;;4.00;;
39140;SDS011;24875;48.436;10.298;2022-08-06T11:44:20;6.63;;;3.83;;
39140;SDS011;24875;48.436;10.298;2022-08-06T11:46:47;5.32;;;3.88;;
39140;SDS011;24875;48.436;10.298;2022-08-06T11:49:23;7.65;;;4.30;;
39140;SDS011;24875;48.436;10.298;2022-08-06T11:52:00;8.38;;;3.92;;
39140;SDS011;24875;48.436;10.298;2022-08-06T11:54:27;7.15;;;4.13;;
39140;SDS011;24875;48.436;10.298;2022-08-06T12:02:55;5.55;;;3.55;;
39140;SDS011;24875;48.436;10.298;2022-08-06T12:05:37;6.85;;;4.30;;
39140;SDS011;24875;48.436;10.298;2022-08-06T12:13:55;7.75;;;3.83;;
39140;SDS011;24875;48.436;10.298;2022-08-06T12:16:29;5.63;;;3.80;;
39140;SDS011;24875;48.436;10.298;2022-08-06T12:18:58;6.38;;;3.67;;
39140;SDS011;24875;48.436;10.298;2022-08-06T12:21:26;7.63;;;3.92;;
39140;SDS011;24875;48.436;10.298;2022-08-06T12:23:54;5.50;;;3.95;;
39140;SDS011;24875;48.436;10.298;2022-08-06T12:26:21;5.90;;;4.10;;
39140;SDS011;24875;48.436;10.298;2022-08-06T12:28:48;8.07;;;4.25;;
39140;SDS011;24875;48.436;10.298;2022-08-06T12:31:27;9.77;;;4.22;;
39140;SDS011;24875;48.436;10.298;2022-08-06T12:33:54;7.10;;;3.97;;
39140;SDS011;24875;48.436;10.298;2022-08-06T12:36:20;5.53;;;3.80;;
39140;SDS011;24875;48.436;10.298;2022-08-06T12:38:53;5.75;;;3.88;;
39140;SDS011;24875;48.436;10.298;2022-08-06T12:41:21;6.55;;;3.95;;
39140;SDS011;24875;48.436;10.298;2022-08-06T12:43:47;5.95;;;3.60;;
39140;SDS011;24875;48.436;10.298;2022-08-06T12:46:14;6.28;;;3.42;;
39140;SDS011;24875;48.436;10.298;2022-08-06T12:48:44;7.13;;;3.90;;
39140;SDS011;24875;48.436;10.298;2022-08-06T12:51:12;4.95;;;3.35;;
39140;SDS011;24875;48.436;10.298;2022-08-06T12:53:41;6.95;;;3.70;;
39140;SDS011;24875;48.436;10.298;2022-08-06T12:56:12;5.15;;;3.47;;
39140;SDS011;24875;48.436;10.298;2022-08-06T12:58:39;5.78;;;3.88;;
39140;SDS011;24875;48.436;10.298;2022-08-06T13:01:08;6.20;;;3.95;;
39140;SDS011;24875;48.436;10.298;2022-08-06T13:03:38;6.88;;;3.85;;
39140;SDS011;24875;48.436;10.298;2022-08-06T13:06:08;7.43;;;3.90;;
39140;SDS011;24875;48.436;10.298;2022-08-06T13:08:35;6.75;;;3.50;;
39140;SDS011;24875;48.436;10.298;2022-08-06T13:11:04;6.90;;;3.80;;
39140;SDS011;24875;48.436;10.298;2022-08-06T13:13:34;5.68;;;3.70;;
39140;SDS011;24875;48.436;10.298;2022-08-06T13:16:04;6.65;;;4.18;;
39140;SDS011;24875;48.436;10.298;2022-08-06T13:18:32;4.40;;;3.28;;
39140;SDS011;24875;48.436;10.298;2022-08-06T13:20:59;8.00;;;4.10;;
39140;SDS011;24875;48.436;10.298;2022-08-06T13:23:29;6.75;;;3.60;;
39140;SDS011;24875;48.436;10.298;2022-08-06T13:25:58;4.68;;;3.70;;
39140;SDS011;24875;48.436;10.298;2022-08-06T13:28:26;6.95;;;3.53;;
39140;SDS011;24875;48.436;10.298;2022-08-06T13:30:53;7.40;;;4.00;;
39140;SDS011;24875;48.436;10.298;2022-08-06T13:33:20;7.20;;;4.22;;
39140;SDS011;24875;48.436;10.298;2022-08-06T13:35:47;7.10;;;4.05;;
39140;SDS011;24875;48.436;10.298;2022-08-06T13:38:27;6.47;;;4.40;;
39140;SDS011;24875;48.436;10.298;2022-08-06T13:40:55;8.38;;;4.32;;
39140;SDS011;24875;48.436;10.298;2022-08-06T13:43:32;8.52;;;4.88;;
39140;SDS011;24875;48.436;10.298;2022-08-06T13:46:05;7.15;;;4.07;;
39140;SDS011;24875;48.436;10.298;2022-08-06T13:48:33;5.18;;;3.92;;
39140;SDS011;24875;48.436;10.298;2022-08-06T13:50:59;6.55;;;4.40;;
39140;SDS011;24875;48.436;10.298;2022-08-06T13:53:25;7.03;;;3.80;;
39140;SDS011;24875;48.436;10.298;2022-08-06T13:55:52;10.30;;;4.25;;
39140;SDS011;24875;48.436;10.298;2022-08-06T13:58:18;6.80;;;3.97;;
39140;SDS011;24875;48.436;10.298;2022-08-06T14:00:46;6.43;;;3.80;;
39140;SDS011;24875;48.436;10.298;2022-08-06T14:03:13;5.85;;;3.78;;
39140;SDS011;24875;48.436;10.298;2022-08-06T14:05:39;6.70;;;3.65;;
39140;SDS011;24875;48.436;10.298;2022-08-06T14:08:06;5.95;;;3.72;;
39140;SDS011;24875;48.436;10.298;2022-08-06T14:10:32;7.70;;;4.22;;
39140;SDS011;24875;48.436;10.298;2022-08-06T14:12:59;5.93;;;4.25;;
39140;SDS011;24875;48.436;10.298;2022-08-06T14:15:45;7.13;;;3.95;;
39140;SDS011;24875;48.436;10.298;2022-08-06T14:18:15;6.75;;;3.90;;
39140;SDS011;24875;48.436;10.298;2022-08-06T14:20:42;4.68;;;3.45;;
39140;SDS011;24875;48.436;10.298;2022-08-06T14:23:09;4.68;;;3.58;;
39140;SDS011;24875;48.436;10.298;2022-08-06T14:25:35;6.22;;;3.78;;
39140;SDS011;24875;48.436;10.298;2022-08-06T14:28:02;5.57;;;3.60;;
39140;SDS011;24875;48.436;10.298;2022-08-06T14:30:30;4.95;;;3.60;;
39140;SDS011;24875;48.436;10.298;2022-08-06T14:32:58;5.88;;;3.45;;
39140;SDS011;24875;48.436;10.298;2022-08-06T14:35:26;5.88;;;3.97;;
39140;SDS011;24875;48.436;10.298;2022-08-06T14:37:52;7.30;;;3.78;;
39140;SDS011;24875;48.436;10.298;2022-08-06T14:40:20;4.18;;;3.30;;
39140;SDS011;24875;48.436;10.298;2022-08-06T14:43:01;4.45;;;3.30;;
39140;SDS011;24875;48.436;10.298;2022-08-06T14:45:45;3.38;;;2.80;;
39140;SDS011;24875;48.436;10.298;2022-08-06T14:48:13;6.38;;;3.10;;
39140;SDS011;24875;48.436;10.298;2022-08-06T14:50:40;6.18;;;3.22;;
39140;SDS011;24875;48.436;10.298;2022-08-06T14:53:06;5.18;;;3.50;;
39140;SDS011;24875;48.436;10.298;2022-08-06T14:55:33;3.97;;;2.75;;
39140;SDS011;24875;48.436;10.298;2022-08-06T14:58:00;5.95;;;2.78;;
39140;SDS011;24875;48.436;10.298;2022-08-06T15:00:26;9.43;;;2.70;;
39140;SDS011;24875;48.436;10.298;2022-08-06T15:02:53;5.72;;;2.88;;
39140;SDS011;24875;48.436;10.298;2022-08-06T15:05:21;5.15;;;3.00;;